createdAt,value
2022-07-31T00:01:42.937Z,1.75
2022-07-31T00:06:45.449Z,1.40
2022-07-31T00:11:47.791Z,1.58
2022-07-31T00:16:50.377Z,1.52
2022-07-31T00:21:52.788Z,1.55
2022-07-31T00:26:55.225Z,1.50
2022-07-31T00:31:58.054Z,1.40
2022-07-31T00:37:01.109Z,1.40
2022-07-31T00:42:03.806Z,1.40
2022-07-31T00:47:07.626Z,1.70
2022-07-31T00:52:10.127Z,1.70
2022-07-31T00:57:12.584Z,1.77
2022-07-31T01:02:15.219Z,1.67
2022-07-31T01:07:18.380Z,1.65
2022-07-31T01:12:31.076Z,1.40
2022-07-31T01:17:33.777Z,1.63
2022-07-31T01:23:10.798Z,1.80
2022-07-31T01:28:43.463Z,1.60
2022-07-31T01:34:14.371Z,1.67
2022-07-31T01:39:17.526Z,1.77
2022-07-31T01:44:21.700Z,1.50
2022-07-31T01:49:25.051Z,2.00
2022-07-31T01:54:28.814Z,2.22
2022-07-31T01:59:35.244Z,2.17
2022-07-31T02:04:48.697Z,2.20
2022-07-31T02:09:58.538Z,2.35
2022-07-31T02:15:09.202Z,1.88
2022-07-31T02:20:14.488Z,2.60
2022-07-31T02:25:16.970Z,2.28
2022-07-31T02:30:19.627Z,2.50
2022-07-31T02:35:25.978Z,2.38
2022-07-31T02:40:28.621Z,2.65
2022-07-31T02:45:31.512Z,2.47
2022-07-31T02:50:34.160Z,2.22
2022-07-31T02:55:36.836Z,1.98
2022-07-31T03:00:39.494Z,2.70
2022-07-31T03:05:42.486Z,2.42
2022-07-31T03:10:45.166Z,1.90
2022-07-31T03:15:50.757Z,1.80
2022-07-31T03:20:54.442Z,2.10
2022-07-31T03:25:57.175Z,2.67
2022-07-31T03:31:00.210Z,2.50
2022-07-31T03:36:06.170Z,2.50
2022-07-31T03:41:08.978Z,2.55
2022-07-31T03:46:12.537Z,2.70
2022-07-31T03:51:15.511Z,2.65
2022-07-31T03:56:18.591Z,2.38
2022-07-31T04:01:22.073Z,2.42
2022-07-31T04:06:27.641Z,2.50
2022-07-31T04:11:31.082Z,3.10
2022-07-31T04:16:33.642Z,2.60
2022-07-31T04:21:36.235Z,2.63
2022-07-31T04:26:40.160Z,2.83
2022-07-31T04:31:43.678Z,2.88
2022-07-31T04:36:50.534Z,2.87
2022-07-31T04:41:53.001Z,2.90
2022-07-31T04:47:08.266Z,2.63
2022-07-31T04:52:16.724Z,3.10
2022-07-31T04:57:22.313Z,2.70
2022-07-31T05:02:25.780Z,2.92
2022-07-31T05:07:32.726Z,3.10
2022-07-31T05:12:39.224Z,2.40
2022-07-31T05:17:41.731Z,2.40
2022-07-31T05:23:13.274Z,2.80
2022-07-31T05:28:36.438Z,2.60
2022-07-31T05:33:39.241Z,3.45
2022-07-31T05:38:42.572Z,3.17
2022-07-31T05:43:53.932Z,3.90
2022-07-31T05:49:00.450Z,4.15
2022-07-31T05:54:03.571Z,4.03
2022-07-31T05:59:24.880Z,3.90
2022-07-31T06:04:28.538Z,3.90
2022-07-31T06:09:31.294Z,3.28
2022-07-31T06:14:33.788Z,3.83
2022-07-31T06:19:56.544Z,3.63
2022-07-31T06:25:02.380Z,3.42
2022-07-31T06:30:06.213Z,2.45
2022-07-31T06:35:10.435Z,2.55
2022-07-31T06:40:32.066Z,2.33
2022-07-31T06:46:07.108Z,2.65
2022-07-31T06:51:33.038Z,2.17
2022-07-31T06:56:36.721Z,1.90
2022-07-31T07:01:39.503Z,1.98
2022-07-31T07:06:42.466Z,2.65
2022-07-31T07:11:50.675Z,2.20
2022-07-31T07:16:55.718Z,2.15
2022-07-31T07:21:58.369Z,2.45
2022-07-31T07:27:00.948Z,2.13
2022-07-31T07:32:04.434Z,2.10
2022-07-31T07:37:07.682Z,2.13
2022-07-31T07:42:10.370Z,3.03
2022-07-31T07:47:12.884Z,2.28
2022-07-31T07:52:15.707Z,1.98
2022-07-31T07:57:20.672Z,1.80
2022-07-31T08:02:43.011Z,2.30
2022-07-31T08:07:46.150Z,2.75
2022-07-31T08:13:07.275Z,2.30
2022-07-31T08:18:28.778Z,2.15
2022-07-31T08:23:33.302Z,2.53
2022-07-31T08:28:38.458Z,1.80
2022-07-31T08:33:40.967Z,1.73
2022-07-31T08:38:43.665Z,1.80
2022-07-31T08:44:04.741Z,2.20
2022-07-31T08:49:12.779Z,1.90
2022-07-31T08:54:20.088Z,2.13
2022-07-31T08:59:23.324Z,2.42
2022-07-31T09:04:26.572Z,2.00
2022-07-31T09:09:51.718Z,2.10
2022-07-31T09:14:52.715Z,2.20
2022-07-31T09:19:55.376Z,1.60
2022-07-31T09:25:16.079Z,1.77
2022-07-31T09:30:19.020Z,1.80
2022-07-31T09:35:30.365Z,2.13
2022-07-31T09:40:37.539Z,1.80
2022-07-31T09:45:59.558Z,1.70
2022-07-31T09:51:07.887Z,2.50
2022-07-31T09:56:12.840Z,2.03
2022-07-31T10:01:15.596Z,1.80
2022-07-31T10:06:20.934Z,2.83
2022-07-31T10:11:24.874Z,1.95
2022-07-31T10:16:45.831Z,2.28
2022-07-31T10:22:07.393Z,2.30
2022-07-31T10:27:13.966Z,2.00
2022-07-31T10:32:18.025Z,1.58
2022-07-31T10:37:54.602Z,1.60
2022-07-31T10:43:27.382Z,1.58
2022-07-31T10:48:53.508Z,2.05
2022-07-31T10:54:15.714Z,1.60
2022-07-31T10:59:44.910Z,1.90
2022-07-31T11:05:24.107Z,1.88
2022-07-31T11:10:51.556Z,2.50
2022-07-31T11:16:17.849Z,2.08
2022-07-31T11:21:40.908Z,2.00
2022-07-31T11:26:57.601Z,1.63
2022-07-31T11:32:06.766Z,1.80
2022-07-31T11:37:09.489Z,2.00
2022-07-31T11:42:11.966Z,2.03
2022-07-31T11:48:09.391Z,2.08
2022-07-31T11:52:37.924Z,1.55
2022-07-31T11:57:51.339Z,2.00
2022-07-31T12:02:55.144Z,1.83
2022-07-31T12:07:57.941Z,1.33
2022-07-31T12:13:00.411Z,1.90
2022-07-31T12:18:05.357Z,1.65
2022-07-31T12:23:07.902Z,1.50
2022-07-31T12:28:30.461Z,1.90
2022-07-31T12:33:44.203Z,1.52
2022-07-31T12:38:49.078Z,1.60
2022-07-31T12:43:52.833Z,1.70
2022-07-31T12:48:55.250Z,1.65
2022-07-31T12:54:00.767Z,1.52
2022-07-31T12:59:03.257Z,1.50
2022-07-31T13:04:07.477Z,1.52
2022-07-31T13:09:10.877Z,1.50
2022-07-31T13:14:13.746Z,1.50
2022-07-31T13:19:16.299Z,1.20
2022-07-31T13:24:19.923Z,1.52
2022-07-31T13:29:22.416Z,1.30
2022-07-31T13:34:24.997Z,1.45
2022-07-31T13:39:27.585Z,1.35
2022-07-31T13:44:30.147Z,1.50
2022-07-31T13:49:32.758Z,1.40
2022-07-31T13:54:35.364Z,1.42
2022-07-31T13:59:37.916Z,1.20
2022-07-31T14:04:40.511Z,1.13
2022-07-31T14:09:51.449Z,1.08
2022-07-31T14:14:57.979Z,1.10
2022-07-31T14:20:00.552Z,1.00
2022-07-31T14:25:03.049Z,1.17
2022-07-31T14:30:10.353Z,1.10
2022-07-31T14:35:13.414Z,1.15
2022-07-31T14:40:16.272Z,1.42
2022-07-31T14:45:18.753Z,1.23
2022-07-31T14:50:21.983Z,1.10
2022-07-31T14:55:29.052Z,1.48
2022-07-31T15:00:31.573Z,1.67
2022-07-31T15:06:41.581Z,1.25
2022-07-31T15:10:56.712Z,1.20
2022-07-31T15:16:00.690Z,1.08
2022-07-31T15:21:03.304Z,1.42
2022-07-31T15:26:07.309Z,1.60
2022-07-31T15:31:10.161Z,1.35
2022-07-31T15:36:15.242Z,1.40
2022-07-31T15:41:18.792Z,1.08
2022-07-31T15:46:21.960Z,1.00
2022-07-31T15:51:25.182Z,1.38
2022-07-31T15:56:27.914Z,1.30
2022-07-31T16:01:30.473Z,1.30
2022-07-31T16:06:33.000Z,1.20
2022-07-31T16:12:04.230Z,1.13
2022-07-31T16:16:58.221Z,1.17
2022-07-31T16:22:00.813Z,1.05
2022-07-31T16:27:03.494Z,1.30
2022-07-31T16:32:06.346Z,1.10
2022-07-31T16:37:08.943Z,1.30
2022-07-31T16:42:12.150Z,1.13
2022-07-31T16:47:14.839Z,1.15
2022-07-31T16:52:17.445Z,1.50
2022-07-31T16:57:21.457Z,1.05
2022-07-31T17:02:23.997Z,1.30
2022-07-31T17:07:26.362Z,1.45
2022-07-31T17:12:28.989Z,1.20
2022-07-31T17:17:31.509Z,1.10
2022-07-31T17:22:38.050Z,1.60
2022-07-31T17:27:42.547Z,1.48
2022-07-31T17:32:44.939Z,1.17
2022-07-31T17:37:47.499Z,1.20
2022-07-31T17:42:50.071Z,1.35
2022-07-31T17:48:03.345Z,1.60
2022-07-31T17:53:06.382Z,1.90
2022-07-31T17:58:08.980Z,1.42
2022-07-31T18:03:11.403Z,1.55
2022-07-31T18:08:13.818Z,1.20
2022-07-31T18:13:16.407Z,1.20
2022-07-31T18:18:19.237Z,1.08
2022-07-31T18:23:23.183Z,1.40
2022-07-31T18:28:26.718Z,1.10
2022-07-31T18:33:29.489Z,1.48
2022-07-31T18:38:32.214Z,1.65
2022-07-31T18:43:34.956Z,1.27
2022-07-31T18:48:38.146Z,0.90
2022-07-31T18:53:40.712Z,1.38
2022-07-31T18:58:44.328Z,1.20
2022-07-31T19:03:47.264Z,1.30
2022-07-31T19:08:52.176Z,1.40
2022-07-31T19:13:54.923Z,1.58
2022-07-31T19:18:57.473Z,1.70
2022-07-31T19:24:00.411Z,1.67
2022-07-31T19:29:02.958Z,1.92
2022-07-31T19:34:05.719Z,1.73
2022-07-31T19:39:11.338Z,1.50
2022-07-31T19:44:14.103Z,1.85
2022-07-31T19:49:16.663Z,1.55
2022-07-31T19:54:19.181Z,1.70
2022-07-31T19:59:22.410Z,1.80
2022-07-31T20:04:25.330Z,2.50
2022-07-31T20:09:27.843Z,2.35
2022-07-31T20:14:30.414Z,2.30
2022-07-31T20:19:33.039Z,2.35
2022-07-31T20:24:35.467Z,2.72
2022-07-31T20:29:38.076Z,2.70
2022-07-31T20:34:40.604Z,2.22
2022-07-31T20:39:43.241Z,2.63
2022-07-31T20:44:45.720Z,2.13
2022-07-31T20:49:48.345Z,2.30
2022-07-31T20:54:50.935Z,2.50
2022-07-31T20:59:53.922Z,2.42
2022-07-31T21:04:56.251Z,2.03
2022-07-31T21:09:58.689Z,2.20
2022-07-31T21:15:01.160Z,2.25
2022-07-31T21:20:07.601Z,2.83
2022-07-31T21:25:11.267Z,2.50
2022-07-31T21:30:14.087Z,3.35
2022-07-31T21:35:16.776Z,3.10
2022-07-31T21:40:39.353Z,3.40
2022-07-31T21:45:54.959Z,2.70
2022-07-31T21:50:59.517Z,2.88
2022-07-31T21:56:03.705Z,3.20
2022-07-31T22:01:06.521Z,3.05
2022-07-31T22:06:28.224Z,2.90
2022-07-31T22:11:31.545Z,2.90
2022-07-31T22:16:34.000Z,3.10
2022-07-31T22:21:36.964Z,2.67
2022-07-31T22:27:00.809Z,3.50
2022-07-31T22:32:03.546Z,3.10
2022-07-31T22:37:06.202Z,4.47
2022-07-31T22:42:09.521Z,4.43
2022-07-31T22:47:12.462Z,3.80
2022-07-31T22:52:15.242Z,4.07
2022-07-31T22:57:18.016Z,4.30
2022-07-31T23:02:22.213Z,4.07
2022-07-31T23:07:24.749Z,3.70
2022-07-31T23:12:28.688Z,4.50
2022-07-31T23:17:31.880Z,4.13
2022-07-31T23:22:35.057Z,3.90
2022-07-31T23:27:37.864Z,4.82
2022-07-31T23:32:40.312Z,5.03
2022-07-31T23:37:44.874Z,5.03
2022-07-31T23:42:48.692Z,4.85
2022-07-31T23:47:51.430Z,5.47
2022-07-31T23:52:53.988Z,5.38
2022-07-31T23:57:56.420Z,5.78
